Time;durP1;ratioP1;P1;durP2;ratioP2;P2;SDS_P1;SDS_P2;PMS_P1;PMS_P2;Temp;Humidity;BMP_temperature;BMP_pressure;BME280_temperature;BME280_humidity;BME280_pressure;Samples;Min_cycle;Max_cycle;Signal;HPM_P1;HPM_P2
2023/03/09 00:03:20;;;;;;;44.58;21.77;;;;;;;0.73;100.00;98734.95;5121396;56;1138870;-77
2023/03/09 00:08:28;;;;;;;36.63;18.10;;;;;;;0.70;100.00;98731.61;5141671;56;1138648;-79
2023/03/09 00:13:35;;;;;;;42.37;20.90;;;;;;;0.66;100.00;98735.80;5205366;55;1138842;-72
2023/03/09 00:18:40;;;;;;;30.40;16.20;;;;;;;0.68;100.00;98741.28;5191548;55;1138713;-76
2023/03/09 00:23:47;;;;;;;33.63;17.80;;;;;;;0.69;100.00;98739.52;5141361;56;1138771;-73
2023/03/09 00:28:53;;;;;;;38.07;16.73;;;;;;;0.66;100.00;98742.31;5120376;55;1138813;-73
2023/03/09 00:33:59;;;;;;;31.63;16.47;;;;;;;0.62;100.00;98735.16;5120912;56;1138751;-76
2023/03/09 00:39:05;;;;;;;26.17;13.97;;;;;;;0.61;100.00;98733.99;5140810;56;1138818;-78
2023/03/09 00:44:13;;;;;;;30.80;15.50;;;;;;;0.58;100.00;98727.22;5113687;56;1138768;-77
2023/03/09 00:49:19;;;;;;;24.57;12.63;;;;;;;0.54;100.00;98704.94;5122116;56;1138724;-77
2023/03/09 00:54:25;;;;;;;23.43;12.30;;;;;;;0.54;100.00;98704.94;5101225;56;1138717;-78
2023/03/09 00:59:31;;;;;;;23.05;11.97;;;;;;;0.53;100.00;98705.03;5052668;56;1138935;-74
2023/03/09 01:04:37;;;;;;;23.57;12.75;;;;;;;0.50;100.00;98713.03;5105686;56;1138929;-76
2023/03/09 01:09:43;;;;;;;21.65;11.83;;;;;;;0.49;100.00;98700.95;5170634;55;1138637;-75
2023/03/09 01:14:51;;;;;;;26.73;12.73;;;;;;;0.46;100.00;98692.88;5129788;56;1138686;-76
2023/03/09 01:19:56;;;;;;;19.32;9.95;;;;;;;0.47;100.00;98677.65;5091152;56;1138816;-73
2023/03/09 01:25:03;;;;;;;22.75;9.38;;;;;;;0.50;100.00;98670.95;5085523;56;1136819;-77
2023/03/09 01:30:11;;;;;;;14.20;8.47;;;;;;;0.49;100.00;98674.48;5100715;56;1136817;-74
2023/03/09 01:35:17;;;;;;;15.53;7.73;;;;;;;0.46;100.00;98677.28;5067602;56;1136780;-76
2023/03/09 01:40:27;;;;;;;13.83;5.60;;;;;;;0.46;100.00;98675.17;5045166;56;1136847;-75
2023/03/09 01:45:38;;;;;;;15.43;6.00;;;;;;;0.46;100.00;98679.08;5067152;56;1136825;-77
2023/03/09 01:50:44;;;;;;;9.03;5.53;;;;;;;0.43;100.00;98697.02;4880408;58;1136854;-77
2023/03/09 01:55:53;;;;;;;13.70;5.73;;;;;;;0.44;100.00;98687.45;4964586;57;1134637;-79
2023/03/09 02:01:00;;;;;;;7.72;5.10;;;;;;;0.43;100.00;98703.98;4884784;58;1136650;-74
2023/03/09 02:06:13;;;;;;;7.20;5.00;;;;;;;0.44;100.00;98679.64;5089498;56;1134411;-72
2023/03/09 02:11:21;;;;;;;7.03;4.70;;;;;;;0.42;100.00;98684.94;5038546;56;1134611;-76
2023/03/09 02:16:27;;;;;;;8.75;5.67;;;;;;;0.39;100.00;98689.03;5031022;56;1134805;-76
2023/03/09 02:21:44;;;;;;;15.20;5.22;;;;;;;0.38;100.00;98681.33;5068093;56;1134677;-76
2023/03/09 02:27:13;;;;;;;12.23;5.87;;;;;;;0.34;100.00;98678.92;5067859;56;1136756;-73
2023/03/09 02:32:20;;;;;;;11.43;6.00;;;;;;;0.32;100.00;98680.78;5093761;55;1136860;-75
2023/03/09 02:37:32;;;;;;;11.25;5.40;;;;;;;0.30;100.00;98692.25;5106720;56;1136672;-76
2023/03/09 02:42:41;;;;;;;13.22;5.70;;;;;;;0.30;100.00;98692.25;5106386;56;1136560;-75
2023/03/09 02:47:47;;;;;;;14.00;5.77;;;;;;;0.27;100.00;98695.88;5032945;56;1136739;-74
2023/03/09 02:52:53;;;;;;;13.48;6.97;;;;;;;0.31;100.00;98701.69;5032766;56;1136718;-77
2023/03/09 02:58:00;;;;;;;14.70;6.87;;;;;;;0.29;100.00;98700.52;5040767;56;1136828;-73
2023/03/09 03:03:06;;;;;;;14.07;7.13;;;;;;;0.29;100.00;98689.28;5116890;55;1136678;-75
2023/03/09 03:08:12;;;;;;;16.53;6.67;;;;;;;0.31;100.00;98695.18;5097844;56;1136655;-74
2023/03/09 03:13:19;;;;;;;15.43;8.20;;;;;;;0.27;100.00;98710.64;5097943;56;1136531;-75
2023/03/09 03:18:25;;;;;;;18.57;9.10;;;;;;;0.25;100.00;98705.53;5120838;56;1136712;-73
2023/03/09 03:23:31;;;;;;;22.80;10.37;;;;;;;0.26;100.00;98708.50;5040042;55;1136724;-73
2023/03/09 03:28:39;;;;;;;29.35;11.35;;;;;;;0.22;100.00;98700.52;5098640;55;1138812;-72
2023/03/09 03:33:46;;;;;;;22.50;10.50;;;;;;;0.25;100.00;98699.03;5051484;56;1138855;-74
2023/03/09 03:38:52;;;;;;;25.30;11.97;;;;;;;0.27;100.00;98696.34;5033375;56;1138664;-73
2023/03/09 03:43:58;;;;;;;27.07;12.25;;;;;;;0.28;100.00;98691.51;5033745;56;1138935;-76
2023/03/09 03:49:04;;;;;;;21.17;12.37;;;;;;;0.30;100.00;98690.48;5053437;56;1138766;-75
2023/03/09 03:54:12;;;;;;;24.87;13.33;;;;;;;0.34;100.00;98693.69;5038361;56;1138837;-77
2023/03/09 03:59:18;;;;;;;24.90;12.87;;;;;;;0.33;100.00;98685.52;5097018;56;1139052;-73
2023/03/09 04:04:24;;;;;;;29.73;12.97;;;;;;;0.32;100.00;98684.69;5161369;55;1138669;-73
2023/03/09 04:09:34;;;;;;;31.50;16.17;;;;;;;0.29;100.00;98678.41;5183577;55;1138743;-75
2023/03/09 04:14:40;;;;;;;38.47;16.13;;;;;;;0.29;100.00;98697.91;5181297;55;1138648;-76
2023/03/09 04:19:47;;;;;;;34.90;15.48;;;;;;;0.25;100.00;98691.23;5153543;55;1138881;-77
2023/03/09 04:24:53;;;;;;;31.60;16.63;;;;;;;0.23;100.00;98694.86;5117533;55;1138730;-73
2023/03/09 04:29:59;;;;;;;37.30;19.03;;;;;;;0.27;100.00;98693.73;5108169;55;1138909;-74
2023/03/09 04:35:08;;;;;;;34.37;17.10;;;;;;;0.23;100.00;98674.90;5125757;56;1139542;-77
2023/03/09 04:40:16;;;;;;;50.17;20.80;;;;;;;0.23;100.00;98674.90;5084221;56;1138816;-73
2023/03/09 04:45:22;;;;;;;33.63;17.30;;;;;;;0.26;100.00;98679.91;5045437;56;1138706;-74
2023/03/09 04:50:30;;;;;;;32.90;15.78;;;;;;;0.27;100.00;98674.23;4995838;56;1138792;-75
2023/03/09 04:55:40;;;;;;;35.63;17.93;;;;;;;0.24;100.00;98679.62;4927235;57;1138787;-68
2023/03/09 05:00:48;;;;;;;41.83;19.40;;;;;;;0.24;100.00;98667.47;5044659;57;1138982;-69
2023/03/09 05:05:56;;;;;;;31.07;16.57;;;;;;;0.24;100.00;98670.06;5045691;56;1138886;-65
2023/03/09 05:11:03;;;;;;;35.30;17.53;;;;;;;0.24;100.00;98666.63;5065550;56;1138767;-72
2023/03/09 05:16:10;;;;;;;34.67;17.63;;;;;;;0.22;100.00;98675.83;5045881;56;1138634;-73
2023/03/09 05:21:18;;;;;;;33.83;17.13;;;;;;;0.23;100.00;98668.40;5106484;56;1138792;-69
2023/03/09 05:26:28;;;;;;;37.30;17.95;;;;;;;0.19;100.00;98676.02;5149877;56;1138917;-69
2023/03/09 05:31:36;;;;;;;35.92;17.15;;;;;;;0.22;100.00;98672.39;5167031;55;1138934;-70
2023/03/09 05:36:42;;;;;;;32.30;17.97;;;;;;;0.22;100.00;98674.99;5206805;55;1138806;-71
2023/03/09 05:41:50;;;;;;;33.70;14.73;;;;;;;0.23;100.00;98680.09;5228626;55;1138752;-70
2023/03/09 05:46:57;;;;;;;34.90;21.17;;;;;;;0.22;100.00;98682.33;5169331;55;1138881;-66
2023/03/09 05:52:03;;;;;;;39.85;20.35;;;;;;;0.21;100.00;98690.22;5121343;55;1138921;-64
2023/03/09 05:57:13;;;;;;;34.43;18.83;;;;;;;0.20;100.00;98684.19;5140670;55;1138891;-68
2023/03/09 06:02:20;;;;;;;37.80;20.23;;;;;;;0.20;100.00;98689.39;5121286;55;1138985;-67
2023/03/09 06:07:30;;;;;;;44.18;21.20;;;;;;;0.21;100.00;98681.13;5120629;55;1138912;-68
2023/03/09 06:12:37;;;;;;;41.45;21.05;;;;;;;0.21;100.00;98679.83;5140981;56;1139020;-64
2023/03/09 06:17:44;;;;;;;44.48;20.95;;;;;;;0.22;100.00;98677.59;5121545;55;1138717;-71
2023/03/09 06:22:51;;;;;;;40.43;20.30;;;;;;;0.18;100.00;98679.55;5208161;55;1138909;-70
2023/03/09 06:27:57;;;;;;;38.27;21.83;;;;;;;0.19;100.00;98692.08;5200251;55;1138909;-66
2023/03/09 06:33:04;;;;;;;32.43;16.27;;;;;;;0.20;100.00;98689.39;5105500;56;1138816;-69
2023/03/09 06:38:12;;;;;;;35.33;17.83;;;;;;;0.18;100.00;98689.95;5044377;56;1139056;-68
2023/03/09 06:43:19;;;;;;;40.13;19.57;;;;;;;0.18;100.00;98693.84;5063899;55;1138939;-69
2023/03/09 06:48:25;;;;;;;42.67;21.63;;;;;;;0.21;100.00;98705.82;5150368;55;1138803;-71
2023/03/09 06:53:31;;;;;;;43.13;19.70;;;;;;;0.19;100.00;98707.68;5129133;54;1212170;-68
2023/03/09 06:58:39;;;;;;;35.15;17.15;;;;;;;0.22;100.00;98713.98;5130067;55;1138723;-66
2023/03/09 07:03:45;;;;;;;31.70;16.70;;;;;;;0.23;100.00;98704.80;5150123;55;1138812;-67
2023/03/09 07:08:52;;;;;;;23.73;12.63;;;;;;;0.25;100.00;98715.93;5129960;55;1138706;-69
2023/03/09 07:13:58;;;;;;;36.83;18.57;;;;;;;0.24;100.00;98702.56;5130218;55;1138743;-70
2023/03/09 07:19:04;;;;;;;27.50;14.63;;;;;;;0.24;100.00;98708.23;5121125;55;1139039;-68
2023/03/09 07:24:10;;;;;;;32.27;14.73;;;;;;;0.27;100.00;98721.03;4980879;57;1139014;-67
2023/03/09 07:29:16;;;;;;;27.27;12.77;;;;;;;0.26;100.00;98716.30;5044227;56;1138965;-67
2023/03/09 07:34:22;;;;;;;30.37;11.93;;;;;;;0.30;100.00;98730.78;5103585;56;1138625;-72
2023/03/09 07:39:30;;;;;;;19.83;9.37;;;;;;;0.30;100.00;98745.55;5145611;56;1138983;-66
2023/03/09 07:44:36;;;;;;;21.77;12.23;;;;;;;0.33;100.00;98753.95;5129826;56;1136753;-70
2023/03/09 07:49:42;;;;;;;32.28;13.55;;;;;;;0.33;100.00;98751.36;5128996;56;1138833;-68
2023/03/09 07:54:52;;;;;;;19.30;10.07;;;;;;;0.32;100.00;98757.95;5057673;56;1138763;-66
2023/03/09 07:59:58;;;;;;;22.27;11.33;;;;;;;0.35;100.00;98765.56;5160468;55;1138794;-69
2023/03/09 08:05:05;;;;;;;22.33;11.43;;;;;;;0.39;100.00;98784.41;5127643;56;1138826;-69
2023/03/09 08:10:13;;;;;;;23.12;12.30;;;;;;;0.39;100.00;98784.41;5063657;56;1138949;-68
2023/03/09 08:15:22;;;;;;;25.97;12.33;;;;;;;0.38;100.00;98782.27;5129160;56;1138728;-71
2023/03/09 08:20:28;;;;;;;25.33;11.10;;;;;;;0.37;100.00;98799.27;5080765;56;1138935;-66
2023/03/09 08:25:34;;;;;;;26.82;11.85;;;;;;;0.39;100.00;98810.41;5084890;57;1138698;-66
2023/03/09 08:30:41;;;;;;;21.55;10.63;;;;;;;0.34;100.00;98818.03;5045826;56;1138867;-73
2023/03/09 08:35:47;;;;;;;27.02;12.82;;;;;;;0.35;100.00;98818.41;5058476;55;1138733;-69
2023/03/09 08:40:55;;;;;;;18.52;10.46;;;;;;;0.35;100.00;98814.50;5144882;56;1138815;-67
2023/03/09 08:46:07;;;;;;;;;;;;;;;0.36;100.00;98828.34;5191436;55;1138869;-70
2023/03/09 08:51:14;;;;;;;30.33;12.93;;;;;;;0.30;100.00;98828.28;5169046;55;971877;-68
2023/03/09 08:56:19;;;;;;;23.33;10.77;;;;;;;0.35;100.00;98835.30;5130528;55;1136873;-68
2023/03/09 09:01:25;;;;;;;18.37;9.27;;;;;;;0.32;100.00;98852.39;5195359;55;1138780;-67
2023/03/09 09:06:32;;;;;;;28.57;15.13;;;;;;;0.30;100.00;98865.14;5217902;55;1136665;-66
2023/03/09 09:11:38;;;;;;;28.13;13.83;;;;;;;0.31;100.00;98878.48;5217862;54;1138829;-65
2023/03/09 09:16:43;;;;;;;32.73;16.23;;;;;;;0.32;100.00;98877.56;5238500;55;1138790;-70
2023/03/09 09:21:51;;;;;;;22.73;11.40;;;;;;;0.38;100.00;98883.69;5074020;55;1138918;-71
2023/03/09 09:26:57;;;;;;;31.03;14.10;;;;;;;0.41;100.00;98881.37;5046380;55;1138869;-74
2023/03/09 09:32:06;;;;;;;26.12;14.53;;;;;;;0.43;100.00;98889.91;5058129;56;1138916;-76
2023/03/09 09:37:12;;;;;;;27.37;14.03;;;;;;;0.47;100.00;98889.61;5186790;55;1138810;-79
2023/03/09 09:42:25;;;;;;;15.50;9.33;;;;;;;0.48;100.00;98898.24;5055110;56;1138795;-73
2023/03/09 09:47:34;;;;;;;23.57;12.03;;;;;;;0.49;100.00;98900.75;5050981;55;1136708;-78
2023/03/09 09:53:13;;;;;;;20.67;13.10;;;;;;;0.48;100.00;98909.95;5128659;55;1138777;-76
2023/03/09 09:58:38;;;;;;;22.37;12.40;;;;;;;0.47;100.00;98908.27;5086401;56;1138974;-77
2023/03/09 10:03:47;;;;;;;18.87;11.43;;;;;;;0.49;100.00;98900.75;5086291;55;1138822;-74
2023/03/09 10:09:01;;;;;;;27.50;13.68;;;;;;;0.53;100.00;98912.64;5088748;55;1138867;-78
2023/03/09 10:14:29;;;;;;;24.13;12.97;;;;;;;0.58;100.00;98934.48;5093334;55;1138840;-74
2023/03/09 10:19:40;;;;;;;18.60;10.98;;;;;;;0.60;100.00;98952.97;5094677;56;1138841;-78
2023/03/09 10:24:53;;;;;;;27.48;14.68;;;;;;;0.68;100.00;98957.68;5047587;56;1138677;-76
2023/03/09 10:55:29;;;;;;;23.47;12.80;;;;;;;0.75;100.00;98973.76;4994046;56;46253;-71
2023/03/09 11:23:48;;;;;;;28.73;14.27;;;;;;;0.85;100.00;99043.34;5230822;55;46870;-71
2023/03/09 11:29:25;;;;;;;26.43;13.13;;;;;;;0.81;100.00;99035.35;5031125;56;1134582;-74
2023/03/09 11:34:38;;;;;;;21.37;9.67;;;;;;;0.86;100.00;99042.88;4986217;57;1138788;-75
2023/03/09 11:40:17;;;;;;;22.53;10.13;;;;;;;0.87;100.00;99058.88;4837041;58;1137005;-70
2023/03/09 11:45:28;;;;;;;18.57;8.60;;;;;;;0.83;100.00;99054.31;4846701;58;1138891;-76
2023/03/09 11:51:12;;;;;;;29.30;12.20;;;;;;;0.86;100.00;99077.55;4948189;57;1137169;-77
2023/03/09 11:56:32;;;;;;;45.57;14.43;;;;;;;0.85;100.00;99065.47;4883136;58;1139135;-79
2023/03/09 12:02:04;;;;;;;18.93;10.30;;;;;;;0.92;100.00;99072.42;4910851;58;1138951;-72
2023/03/09 12:07:32;;;;;;;22.73;11.15;;;;;;;0.90;100.00;99080.81;4888260;58;1138955;-78
2023/03/09 12:12:51;;;;;;;22.37;10.80;;;;;;;0.90;100.00;99067.80;4889224;58;1139058;-81
2023/03/09 12:18:04;;;;;;;13.73;7.07;;;;;;;0.92;100.00;99073.25;4916209;58;1138914;-75
2023/03/09 12:23:42;;;;;;;382.67;143.07;;;;;;;0.90;100.00;99075.14;4986326;57;1136807;-75
2023/03/09 12:29:17;;;;;;;309.70;122.15;;;;;;;0.92;100.00;99080.23;5004788;56;1143060;-75
2023/03/09 12:34:27;;;;;;;105.50;43.70;;;;;;;0.95;100.00;99082.19;5017918;57;1143081;-75
2023/03/09 12:39:40;;;;;;;23.53;11.63;;;;;;;0.98;100.00;99087.67;5180122;55;1140919;-71
2023/03/09 12:44:50;;;;;;;14.43;6.77;;;;;;;0.99;100.00;99091.95;5142339;55;1138818;-78
2023/03/09 12:49:58;;;;;;;21.60;13.13;;;;;;;1.03;100.00;99086.94;5132451;55;1136709;-77
2023/03/09 12:55:23;;;;;;;16.03;10.03;;;;;;;1.05;100.00;99092.89;5142839;55;1138772;-76
2023/03/09 13:00:32;;;;;;;17.23;9.17;;;;;;;1.12;100.00;99107.66;5068854;55;1138788;-76
2023/03/09 13:05:48;;;;;;;26.33;11.83;;;;;;;1.16;100.00;99111.28;5126955;55;1136771;-76
2023/03/09 13:11:28;;;;;;;20.35;7.83;;;;;;;1.18;100.00;99115.09;5118965;55;1138946;-70
2023/03/09 13:16:50;;;;;;;30.97;12.63;;;;;;;1.20;100.00;99128.86;5095265;55;1136746;-80
2023/03/09 13:22:06;;;;;;;18.67;10.27;;;;;;;1.20;100.00;99128.40;5086891;55;1138816;-77
2023/03/09 13:27:28;;;;;;;28.47;11.97;;;;;;;1.18;100.00;99132.86;5104552;55;1139141;-75
2023/03/09 13:32:41;;;;;;;20.90;9.50;;;;;;;1.17;100.00;99133.79;5081548;56;1138948;-75
2023/03/09 13:37:47;;;;;;;22.62;9.55;;;;;;;1.14;100.00;99144.39;5092695;56;1136710;-80
2023/03/09 13:42:54;;;;;;;15.50;7.58;;;;;;;1.14;100.00;99143.55;5031224;56;1136765;-76
2023/03/09 13:48:04;;;;;;;14.63;8.40;;;;;;;1.15;100.00;99162.15;5051044;56;1136919;-76
2023/03/09 13:53:20;;;;;;;19.48;10.70;;;;;;;1.14;100.00;99172.19;5021331;56;1136798;-71
2023/03/09 13:58:27;;;;;;;32.80;12.05;;;;;;;1.15;100.00;99177.31;5059447;56;1138854;-72
2023/03/09 14:03:36;;;;;;;27.87;11.17;;;;;;;1.20;100.00;99180.48;5104441;55;1138928;-71
2023/03/09 14:08:49;;;;;;;26.93;9.37;;;;;;;1.23;100.00;99175.52;5181883;55;1138892;-74
2023/03/09 14:14:04;;;;;;;44.25;16.60;;;;;;;1.27;100.00;99170.51;5174497;55;1136775;-75
2023/03/09 14:19:17;;;;;;;17.90;8.77;;;;;;;1.28;100.00;99166.98;5115480;55;1139112;-76
2023/03/09 14:24:34;;;;;;;21.68;9.63;;;;;;;1.28;100.00;99173.02;5103099;56;1136910;-73
2023/03/09 14:29:40;;;;;;;10.23;6.80;;;;;;;1.28;100.00;99169.12;5009828;56;1136941;-77
2023/03/09 14:34:46;;;;;;;19.63;10.23;;;;;;;1.27;100.00;99160.93;5118549;55;1136816;-74
2023/03/09 14:39:54;;;;;;;18.10;9.83;;;;;;;1.27;100.00;99159.62;5172554;55;1139037;-71
2023/03/09 14:45:13;;;;;;;33.23;15.23;;;;;;;1.29;100.00;99158.23;5116384;56;1136778;-74
2023/03/09 14:50:20;;;;;;;46.80;17.98;;;;;;;1.30;100.00;99168.56;5112306;55;1138861;-76
2023/03/09 14:55:26;;;;;;;27.03;10.77;;;;;;;1.29;100.00;99172.09;5184947;55;1138786;-71
2023/03/09 15:00:33;;;;;;;34.53;15.57;;;;;;;1.28;100.00;99168.28;5205713;55;1138913;-76
2023/03/09 15:05:39;;;;;;;40.80;21.60;;;;;;;1.26;100.00;99168.37;5148585;55;1138931;-69
2023/03/09 15:10:45;;;;;;;24.40;10.13;;;;;;;1.26;100.00;99168.37;5112732;55;1138949;-66
2023/03/09 15:15:51;;;;;;;17.32;8.33;;;;;;;1.28;100.00;99165.21;5084485;56;1138989;-69
2023/03/09 15:20:57;;;;;;;220.87;95.53;;;;;;;1.28;100.00;99176.93;5149484;55;1136795;-67
2023/03/09 15:26:07;;;;;;;180.27;77.07;;;;;;;1.30;100.00;99191.16;5179035;55;1141057;-70
2023/03/09 15:31:13;;;;;;;129.70;69.43;;;;;;;1.32;100.00;99193.22;5107250;55;1140967;-70
2023/03/09 15:36:20;;;;;;;29.02;13.10;;;;;;;1.30;100.00;99208.09;5118980;55;1140930;-67
2023/03/09 15:41:27;;;;;;;35.00;16.40;;;;;;;1.30;100.00;99195.07;4851111;56;1138892;-70
2023/03/09 15:46:33;;;;;;;25.77;9.13;;;;;;;1.29;100.00;99192.09;5001850;56;1138944;-72
2023/03/09 15:51:39;;;;;;;33.07;13.37;;;;;;;1.30;100.00;99193.77;5030865;56;1136713;-68
2023/03/09 15:56:45;;;;;;;41.00;11.97;;;;;;;1.31;100.00;99202.80;4973072;56;1138923;-68
2023/03/09 16:01:51;;;;;;;30.23;12.10;;;;;;;1.34;100.00;99206.52;5087049;56;1138856;-71
2023/03/09 16:06:57;;;;;;;32.80;13.60;;;;;;;1.37;100.00;99223.73;5022070;56;1139102;-69
2023/03/09 16:12:03;;;;;;;29.10;11.60;;;;;;;1.37;100.00;99212.02;5034618;57;1138956;-71
2023/03/09 16:17:09;;;;;;;57.50;22.50;;;;;;;1.33;100.00;99220.47;5009145;56;1138987;-70
2023/03/09 16:22:15;;;;;;;28.50;11.90;;;;;;;1.33;100.00;99219.63;5039870;56;1138996;-70
2023/03/09 16:27:20;;;;;;;20.32;9.05;;;;;;;1.30;100.00;99208.94;5086455;56;1139003;-69
2023/03/09 16:32:26;;;;;;;19.67;8.40;;;;;;;1.26;100.00;99218.31;5041484;57;1136808;-69
2023/03/09 16:37:33;;;;;;;56.77;28.13;;;;;;;1.25;100.00;99221.38;5042208;57;1136808;-69
2023/03/09 16:42:40;;;;;;;67.33;21.77;;;;;;;1.25;100.00;99232.27;5017544;57;1138972;-73
2023/03/09 16:47:46;;;;;;;45.27;17.50;;;;;;;1.23;100.00;99224.54;5015748;57;1138987;-72
2023/03/09 16:52:53;;;;;;;158.90;69.50;;;;;;;1.22;100.00;99227.27;5042041;57;1138855;-72
2023/03/09 16:57:59;;;;;;;82.00;41.88;;;;;;;1.23;100.00;99233.66;5041638;57;1141057;-71
2023/03/09 17:03:06;;;;;;;43.67;22.17;;;;;;;1.24;100.00;99235.33;5062100;57;1138894;-69
2023/03/09 17:08:13;;;;;;;33.27;14.50;;;;;;;1.22;100.00;99245.00;5042762;57;1138977;-74
2023/03/09 17:13:19;;;;;;;29.77;14.63;;;;;;;1.17;100.00;99255.34;5007152;57;1138832;-71
2023/03/09 17:18:25;;;;;;;20.90;9.87;;;;;;;1.15;100.00;99265.00;5019481;57;1138833;-67
2023/03/09 17:23:33;;;;;;;20.43;8.70;;;;;;;1.14;100.00;99260.72;5036586;57;1136828;-68
2023/03/09 17:28:39;;;;;;;18.63;9.13;;;;;;;1.11;100.00;99266.94;5044811;57;1136827;-68
2023/03/09 17:33:47;;;;;;;28.13;10.23;;;;;;;1.07;100.00;99256.81;5117228;56;1136766;-71
2023/03/09 17:38:55;;;;;;;21.37;8.73;;;;;;;1.02;100.00;99259.22;5096988;56;1138842;-71
2023/03/09 17:44:01;;;;;;;26.63;12.07;;;;;;;1.05;100.00;99255.60;5031044;56;1136782;-70
2023/03/09 17:49:09;;;;;;;17.13;7.97;;;;;;;1.01;100.00;99261.45;5030953;56;1139046;-68
2023/03/09 17:54:15;;;;;;;12.53;6.20;;;;;;;1.00;100.00;99262.84;5051189;56;1137222;-68
2023/03/09 17:59:21;;;;;;;17.37;7.17;;;;;;;0.95;100.00;99245.34;5030978;56;1136817;-69
2023/03/09 18:04:27;;;;;;;30.40;10.70;;;;;;;0.89;100.00;99254.82;5031400;56;1136748;-72
2023/03/09 18:09:33;;;;;;;47.13;18.83;;;;;;;0.88;100.00;99251.84;5050457;56;1138956;-70
2023/03/09 18:14:38;;;;;;;65.73;24.63;;;;;;;0.87;100.00;99249.70;5088604;56;1138841;-70
2023/03/09 18:19:44;;;;;;;24.70;9.50;;;;;;;0.87;100.00;99252.77;5080648;56;1138739;-76
2023/03/09 18:24:50;;;;;;;30.60;8.30;;;;;;;0.87;100.00;99254.07;5033730;56;1136811;-75
2023/03/09 18:29:57;;;;;;;54.07;21.63;;;;;;;0.87;100.00;99254.07;5055457;56;1136727;-77
2023/03/09 18:35:03;;;;;;;15.73;6.53;;;;;;;0.84;100.00;99246.44;5031961;56;1138827;-74
2023/03/09 18:40:10;;;;;;;21.40;7.70;;;;;;;0.83;100.00;99243.45;4965497;57;1136731;-75
2023/03/09 18:45:17;;;;;;;16.55;6.65;;;;;;;0.83;100.00;99239.55;5135251;56;1136875;-77
2023/03/09 18:50:23;;;;;;;32.20;10.68;;;;;;;0.82;100.00;99232.67;5114890;56;1136715;-75
2023/03/09 18:55:31;;;;;;;44.53;12.50;;;;;;;0.82;100.00;99242.62;5114744;56;1138789;-75
2023/03/09 19:00:38;;;;;;;35.23;12.33;;;;;;;0.83;100.00;99239.55;5134079;56;1138922;-76
2023/03/09 19:05:44;;;;;;;20.40;7.83;;;;;;;0.82;100.00;99235.27;5029320;57;1138974;-75
2023/03/09 19:10:51;;;;;;;24.40;10.93;;;;;;;0.82;100.00;99235.27;5114635;56;1137027;-72
2023/03/09 19:16:03;;;;;;;22.83;10.53;;;;;;;0.78;100.00;99232.46;5100992;56;1138816;-76
2023/03/09 19:21:12;;;;;;;27.53;10.70;;;;;;;0.74;100.00;99238.33;5052497;56;1139157;-75
2023/03/09 19:26:18;;;;;;;22.47;9.23;;;;;;;0.74;100.00;99233.13;5051570;56;1138942;-76
2023/03/09 19:31:28;;;;;;;21.52;8.80;;;;;;;0.71;100.00;99222.89;4947778;57;1136971;-76
2023/03/09 19:36:34;;;;;;;22.07;9.47;;;;;;;0.69;100.00;99226.88;4960703;58;1136915;-74
2023/03/09 19:41:40;;;;;;;34.10;12.43;;;;;;;0.68;100.00;99223.06;4972494;57;1137036;-74
2023/03/09 19:46:46;;;;;;;74.37;31.63;;;;;;;0.66;100.00;99221.84;5053161;56;1138977;-79
2023/03/09 19:51:52;;;;;;;39.77;15.67;;;;;;;0.64;100.00;99212.45;4958530;58;1138904;-76
2023/03/09 19:56:58;;;;;;;128.50;59.70;;;;;;;0.60;100.00;99208.37;5066381;56;1138814;-78
2023/03/09 20:02:04;;;;;;;29.77;13.57;;;;;;;0.55;100.00;99207.33;4963549;57;1140964;-76
2023/03/09 20:07:10;;;;;;;22.40;9.67;;;;;;;0.57;100.00;99205.94;5081116;56;1138838;-78
2023/03/09 20:12:17;;;;;;;22.13;10.87;;;;;;;0.49;100.00;99199.03;4984249;57;1136975;-79
2023/03/09 20:17:23;;;;;;;25.10;11.47;;;;;;;0.44;100.00;99196.72;5105140;56;1139361;-77
2023/03/09 20:22:29;;;;;;;20.73;10.07;;;;;;;0.42;100.00;99190.75;5104899;56;1138848;-76
2023/03/09 20:27:34;;;;;;;29.77;10.87;;;;;;;0.39;100.00;99190.09;5098215;55;1139013;-76
2023/03/09 20:32:40;;;;;;;21.60;9.90;;;;;;;0.36;100.00;99187.20;4963425;57;1138881;-76
2023/03/09 20:37:46;;;;;;;22.63;10.73;;;;;;;0.28;100.00;99178.55;5039497;56;1136764;-74
2023/03/09 20:42:52;;;;;;;19.83;10.57;;;;;;;0.23;100.00;99184.45;5031844;56;1138849;-76
2023/03/09 20:47:57;;;;;;;36.07;13.53;;;;;;;0.24;100.00;99178.34;5047226;56;1139217;-80
2023/03/09 20:53:03;;;;;;;29.52;12.78;;;;;;;0.25;100.00;99170.91;5029662;56;1138832;-76
2023/03/09 20:58:09;;;;;;;30.10;13.67;;;;;;;0.30;100.00;99160.27;5030866;56;1138818;-78
2023/03/09 21:03:15;;;;;;;34.90;15.63;;;;;;;0.28;100.00;99160.34;5070130;56;1138874;-78
2023/03/09 21:08:21;;;;;;;31.13;12.73;;;;;;;0.28;100.00;99152.55;5098655;56;1138820;-79
2023/03/09 21:13:27;;;;;;;31.75;13.80;;;;;;;0.25;100.00;99147.52;5053881;56;1138741;-76
2023/03/09 21:18:33;;;;;;;31.10;13.60;;;;;;;0.24;100.00;99143.23;5135000;56;1139228;-75
2023/03/09 21:23:40;;;;;;;29.80;12.80;;;;;;;0.20;100.00;99144.79;5030336;57;1139162;-76
2023/03/09 21:28:46;;;;;;;33.10;14.13;;;;;;;0.24;100.00;99141.09;5031164;56;1139080;-82
2023/03/09 21:33:52;;;;;;;24.85;11.93;;;;;;;0.27;100.00;99126.63;5031511;56;1139075;-77
2023/03/09 21:38:58;;;;;;;24.37;12.13;;;;;;;0.27;100.00;99118.37;5064798;56;1139017;-74
2023/03/09 21:44:04;;;;;;;25.80;13.20;;;;;;;0.28;100.00;99099.24;5075142;56;1138745;-77
2023/03/09 21:49:11;;;;;;;37.27;15.77;;;;;;;0.24;100.00;99093.84;5041184;57;1138772;-80
2023/03/09 21:54:17;;;;;;;43.87;19.17;;;;;;;0.22;100.00;99086.59;5060913;57;1139168;-75
2023/03/09 21:59:24;;;;;;;62.63;24.27;;;;;;;0.20;100.00;99074.13;5041217;57;1138787;-80
2023/03/09 22:04:35;;;;;;;38.95;17.32;;;;;;;0.19;100.00;99071.63;5056512;56;1139196;-79
2023/03/09 22:09:41;;;;;;;38.33;17.77;;;;;;;0.21;100.00;99073.21;5019268;57;1139126;-77
2023/03/09 22:14:47;;;;;;;25.37;14.07;;;;;;;0.23;100.00;99070.52;5084749;56;1138971;-80
2023/03/09 22:19:57;;;;;;;31.17;17.50;;;;;;;0.23;100.00;99058.83;5107821;56;1138837;-77
2023/03/09 22:25:04;;;;;;;31.03;17.20;;;;;;;0.19;100.00;99050.83;5071525;56;1139069;-81
2023/03/09 22:30:13;;;;;;;35.53;18.33;;;;;;;0.20;100.00;99059.84;4963023;58;1138773;-76
2023/03/09 22:35:20;;;;;;;30.92;16.65;;;;;;;0.17;100.00;99038.38;5045962;57;1139176;-81
2023/03/09 22:40:26;;;;;;;30.47;17.10;;;;;;;0.18;100.00;99036.98;4981994;57;1138833;-80
2023/03/09 22:45:31;;;;;;;33.10;17.47;;;;;;;0.20;100.00;99039.04;5041428;56;1138841;-81
2023/03/09 22:50:38;;;;;;;34.13;18.23;;;;;;;0.19;100.00;99020.93;5041266;57;1138844;-81
2023/03/09 22:55:44;;;;;;;38.10;20.50;;;;;;;0.22;100.00;99014.25;5026186;57;1138903;-81
2023/03/09 23:00:50;;;;;;;39.03;21.13;;;;;;;0.24;100.00;99009.80;5041262;57;1139076;-80
2023/03/09 23:05:56;;;;;;;35.78;20.08;;;;;;;0.23;100.00;98997.27;5041396;56;1138974;-77
2023/03/09 23:11:04;;;;;;;45.80;23.42;;;;;;;0.21;100.00;98977.48;5099705;56;1139036;-78
2023/03/09 23:16:10;;;;;;;38.53;22.07;;;;;;;0.23;100.00;98975.17;5025847;57;1138751;-76
2023/03/09 23:21:16;;;;;;;40.73;21.07;;;;;;;0.27;100.00;98977.13;5130803;56;1138895;-76
2023/03/09 23:26:24;;;;;;;44.53;23.95;;;;;;;0.29;100.00;98976.58;5130138;56;1139137;-82
2023/03/09 23:31:30;;;;;;;39.07;22.23;;;;;;;0.27;100.00;98966.27;5125558;56;1138951;-77
2023/03/09 23:36:36;;;;;;;41.93;22.60;;;;;;;0.27;100.00;98958.92;5070225;56;1139071;-80
2023/03/09 23:41:42;;;;;;;41.07;22.77;;;;;;;0.29;100.00;98954.47;5060248;56;1138871;-80
2023/03/09 23:46:48;;;;;;;43.30;23.23;;;;;;;0.29;100.00;98944.91;4951571;57;1138917;-79
2023/03/09 23:51:54;;;;;;;45.13;25.00;;;;;;;0.26;100.00;98934.69;5086657;56;1138985;-77
2023/03/09 23:57:00;;;;;;;49.20;25.27;;;;;;;0.28;100.00;98919.00;4951705;57;1139089;-77
